sensor_id;sensor_type;location;lat;lon;timestamp;temperature;humidity
12434;DHT22;6281;49.038;8.372;2022-10-31T00:01:24;12.60;99.90
12434;DHT22;6281;49.038;8.372;2022-10-31T00:03:52;12.60;99.90
12434;DHT22;6281;49.038;8.372;2022-10-31T00:06:20;12.60;99.90
12434;DHT22;6281;49.038;8.372;2022-10-31T00:08:52;12.60;99.90
12434;DHT22;6281;49.038;8.372;2022-10-31T00:11:19;12.50;99.90
12434;DHT22;6281;49.038;8.372;2022-10-31T00:13:46;12.60;99.90
12434;DHT22;6281;49.038;8.372;2022-10-31T00:16:14;12.40;99.90
12434;DHT22;6281;49.038;8.372;2022-10-31T00:18:41;12.40;99.90
12434;DHT22;6281;49.038;8.372;2022-10-31T00:21:08;12.30;99.90
12434;DHT22;6281;49.038;8.372;2022-10-31T00:23:35;12.30;99.90
12434;DHT22;6281;49.038;8.372;2022-10-31T00:26:04;12.20;99.90
12434;DHT22;6281;49.038;8.372;2022-10-31T00:28:32;12.20;99.90
12434;DHT22;6281;49.038;8.372;2022-10-31T00:31:00;12.10;99.90
12434;DHT22;6281;49.038;8.372;2022-10-31T00:33:27;12.00;99.90
12434;DHT22;6281;49.038;8.372;2022-10-31T00:35:55;11.80;99.90
12434;DHT22;6281;49.038;8.372;2022-10-31T00:38:22;11.90;99.90
12434;DHT22;6281;49.038;8.372;2022-10-31T00:40:49;11.90;99.90
12434;DHT22;6281;49.038;8.372;2022-10-31T00:43:17;11.90;99.90
12434;DHT22;6281;49.038;8.372;2022-10-31T00:45:44;11.80;99.90
12434;DHT22;6281;49.038;8.372;2022-10-31T00:48:11;11.80;99.90
12434;DHT22;6281;49.038;8.372;2022-10-31T00:51:03;11.90;99.90
12434;DHT22;6281;49.038;8.372;2022-10-31T00:53:31;12.00;99.90
12434;DHT22;6281;49.038;8.372;2022-10-31T00:55:57;12.00;99.90
12434;DHT22;6281;49.038;8.372;2022-10-31T00:58:26;12.00;99.90
12434;DHT22;6281;49.038;8.372;2022-10-31T01:00:53;12.00;99.90
12434;DHT22;6281;49.038;8.372;2022-10-31T01:03:22;12.00;99.90
12434;DHT22;6281;49.038;8.372;2022-10-31T01:05:59;11.90;99.90
12434;DHT22;6281;49.038;8.372;2022-10-31T01:08:26;11.80;99.90
12434;DHT22;6281;49.038;8.372;2022-10-31T01:11:01;11.70;99.90
12434;DHT22;6281;49.038;8.372;2022-10-31T01:13:30;11.70;99.90
12434;DHT22;6281;49.038;8.372;2022-10-31T01:15:57;11.60;99.90
12434;DHT22;6281;49.038;8.372;2022-10-31T01:18:25;11.70;99.90
12434;DHT22;6281;49.038;8.372;2022-10-31T01:21:00;11.60;99.90
12434;DHT22;6281;49.038;8.372;2022-10-31T01:23:28;11.70;99.90
12434;DHT22;6281;49.038;8.372;2022-10-31T01:26:03;11.70;99.90
12434;DHT22;6281;49.038;8.372;2022-10-31T01:28:32;11.70;99.90
12434;DHT22;6281;49.038;8.372;2022-10-31T01:31:03;11.70;99.90
12434;DHT22;6281;49.038;8.372;2022-10-31T01:33:30;11.60;99.90
12434;DHT22;6281;49.038;8.372;2022-10-31T01:35:57;11.60;99.90
12434;DHT22;6281;49.038;8.372;2022-10-31T01:38:24;11.50;99.90
12434;DHT22;6281;49.038;8.372;2022-10-31T01:40:51;11.50;99.90
12434;DHT22;6281;49.038;8.372;2022-10-31T01:43:18;11.50;99.90
12434;DHT22;6281;49.038;8.372;2022-10-31T01:45:51;11.50;99.90
12434;DHT22;6281;49.038;8.372;2022-10-31T01:48:22;11.40;99.90
12434;DHT22;6281;49.038;8.372;2022-10-31T01:50:53;11.40;99.90
12434;DHT22;6281;49.038;8.372;2022-10-31T01:53:21;11.50;99.90
12434;DHT22;6281;49.038;8.372;2022-10-31T01:55:49;11.50;99.90
12434;DHT22;6281;49.038;8.372;2022-10-31T01:58:19;11.50;99.90
12434;DHT22;6281;49.038;8.372;2022-10-31T02:00:53;11.40;99.90
12434;DHT22;6281;49.038;8.372;2022-10-31T02:03:22;11.30;99.90
12434;DHT22;6281;49.038;8.372;2022-10-31T02:05:49;11.20;99.90
12434;DHT22;6281;49.038;8.372;2022-10-31T02:08:19;11.20;99.90
12434;DHT22;6281;49.038;8.372;2022-10-31T02:10:47;11.10;99.90
12434;DHT22;6281;49.038;8.372;2022-10-31T02:13:14;11.00;99.90
12434;DHT22;6281;49.038;8.372;2022-10-31T02:15:43;10.90;99.90
12434;DHT22;6281;49.038;8.372;2022-10-31T02:18:12;11.00;99.90
12434;DHT22;6281;49.038;8.372;2022-10-31T02:20:45;11.00;99.90
12434;DHT22;6281;49.038;8.372;2022-10-31T02:23:45;11.00;99.90
12434;DHT22;6281;49.038;8.372;2022-10-31T02:26:44;10.90;99.90
12434;DHT22;6281;49.038;8.372;2022-10-31T02:29:52;11.00;99.90
12434;DHT22;6281;49.038;8.372;2022-10-31T02:32:26;11.00;99.90
12434;DHT22;6281;49.038;8.372;2022-10-31T02:34:58;11.10;99.90
12434;DHT22;6281;49.038;8.372;2022-10-31T02:37:34;11.00;99.90
12434;DHT22;6281;49.038;8.372;2022-10-31T02:40:08;11.00;99.90
12434;DHT22;6281;49.038;8.372;2022-10-31T02:42:45;10.80;99.90
12434;DHT22;6281;49.038;8.372;2022-10-31T02:45:23;11.00;99.90
12434;DHT22;6281;49.038;8.372;2022-10-31T02:47:57;11.00;99.90
12434;DHT22;6281;49.038;8.372;2022-10-31T02:50:28;10.90;99.90
12434;DHT22;6281;49.038;8.372;2022-10-31T02:52:55;10.90;99.90
12434;DHT22;6281;49.038;8.372;2022-10-31T02:55:47;11.00;99.90
12434;DHT22;6281;49.038;8.372;2022-10-31T02:58:18;10.90;99.90
12434;DHT22;6281;49.038;8.372;2022-10-31T03:00:56;10.90;99.90
12434;DHT22;6281;49.038;8.372;2022-10-31T03:03:32;10.80;99.90
12434;DHT22;6281;49.038;8.372;2022-10-31T03:06:03;10.60;99.90
12434;DHT22;6281;49.038;8.372;2022-10-31T03:08:35;10.70;99.90
12434;DHT22;6281;49.038;8.372;2022-10-31T03:11:05;10.60;99.90
12434;DHT22;6281;49.038;8.372;2022-10-31T03:13:37;10.40;99.90
12434;DHT22;6281;49.038;8.372;2022-10-31T03:16:09;10.60;99.90
12434;DHT22;6281;49.038;8.372;2022-10-31T03:18:42;10.60;99.90
12434;DHT22;6281;49.038;8.372;2022-10-31T03:21:12;10.50;99.90
12434;DHT22;6281;49.038;8.372;2022-10-31T03:23:43;10.60;99.90
12434;DHT22;6281;49.038;8.372;2022-10-31T03:26:11;10.70;99.90
12434;DHT22;6281;49.038;8.372;2022-10-31T03:28:43;10.60;99.90
12434;DHT22;6281;49.038;8.372;2022-10-31T03:31:13;10.80;99.90
12434;DHT22;6281;49.038;8.372;2022-10-31T03:33:45;10.90;99.90
12434;DHT22;6281;49.038;8.372;2022-10-31T03:36:14;10.90;99.90
12434;DHT22;6281;49.038;8.372;2022-10-31T03:38:43;10.90;99.90
12434;DHT22;6281;49.038;8.372;2022-10-31T03:41:16;10.70;99.90
12434;DHT22;6281;49.038;8.372;2022-10-31T03:43:48;10.70;99.90
12434;DHT22;6281;49.038;8.372;2022-10-31T03:46:18;10.60;99.90
12434;DHT22;6281;49.038;8.372;2022-10-31T03:48:46;10.60;99.90
12434;DHT22;6281;49.038;8.372;2022-10-31T03:51:20;10.50;99.90
12434;DHT22;6281;49.038;8.372;2022-10-31T03:53:52;10.50;99.90
12434;DHT22;6281;49.038;8.372;2022-10-31T03:56:25;10.50;99.90
12434;DHT22;6281;49.038;8.372;2022-10-31T03:58:58;10.60;99.90
12434;DHT22;6281;49.038;8.372;2022-10-31T04:01:30;10.50;99.90
12434;DHT22;6281;49.038;8.372;2022-10-31T04:03:59;10.50;99.90
12434;DHT22;6281;49.038;8.372;2022-10-31T04:06:27;10.60;99.90
12434;DHT22;6281;49.038;8.372;2022-10-31T04:08:58;10.60;99.90
12434;DHT22;6281;49.038;8.372;2022-10-31T04:11:29;10.60;99.90
12434;DHT22;6281;49.038;8.372;2022-10-31T04:13:58;10.60;99.90
12434;DHT22;6281;49.038;8.372;2022-10-31T04:16:27;10.60;99.90
12434;DHT22;6281;49.038;8.372;2022-10-31T04:18:54;10.60;99.90
12434;DHT22;6281;49.038;8.372;2022-10-31T04:21:26;10.60;99.90
12434;DHT22;6281;49.038;8.372;2022-10-31T04:23:54;10.60;99.90
12434;DHT22;6281;49.038;8.372;2022-10-31T04:26:21;10.60;99.90
12434;DHT22;6281;49.038;8.372;2022-10-31T04:28:48;10.60;99.90
12434;DHT22;6281;49.038;8.372;2022-10-31T04:31:15;10.50;99.90
12434;DHT22;6281;49.038;8.372;2022-10-31T04:33:42;10.60;99.90
12434;DHT22;6281;49.038;8.372;2022-10-31T04:36:09;10.60;99.90
12434;DHT22;6281;49.038;8.372;2022-10-31T04:38:38;10.40;99.90
12434;DHT22;6281;49.038;8.372;2022-10-31T04:41:05;10.50;99.90
12434;DHT22;6281;49.038;8.372;2022-10-31T04:43:31;10.50;99.90
12434;DHT22;6281;49.038;8.372;2022-10-31T04:45:58;10.40;99.90
12434;DHT22;6281;49.038;8.372;2022-10-31T04:48:25;10.50;99.90
12434;DHT22;6281;49.038;8.372;2022-10-31T04:50:52;10.40;99.90
12434;DHT22;6281;49.038;8.372;2022-10-31T04:53:19;10.30;99.90
12434;DHT22;6281;49.038;8.372;2022-10-31T04:55:48;10.30;99.90
12434;DHT22;6281;49.038;8.372;2022-10-31T04:58:14;10.20;99.90
12434;DHT22;6281;49.038;8.372;2022-10-31T05:00:41;10.10;99.90
12434;DHT22;6281;49.038;8.372;2022-10-31T05:03:08;10.20;99.90
12434;DHT22;6281;49.038;8.372;2022-10-31T05:05:35;10.20;99.90
12434;DHT22;6281;49.038;8.372;2022-10-31T05:08:02;10.30;99.90
12434;DHT22;6281;49.038;8.372;2022-10-31T05:10:30;10.20;99.90
12434;DHT22;6281;49.038;8.372;2022-10-31T05:13:00;10.20;99.90
12434;DHT22;6281;49.038;8.372;2022-10-31T05:15:28;10.00;99.90
12434;DHT22;6281;49.038;8.372;2022-10-31T05:17:55;10.00;99.90
12434;DHT22;6281;49.038;8.372;2022-10-31T05:20:24;10.10;99.90
12434;DHT22;6281;49.038;8.372;2022-10-31T05:22:53;10.20;99.90
12434;DHT22;6281;49.038;8.372;2022-10-31T05:25:22;10.20;99.90
12434;DHT22;6281;49.038;8.372;2022-10-31T05:27:50;10.10;99.90
12434;DHT22;6281;49.038;8.372;2022-10-31T05:30:21;10.20;99.90
12434;DHT22;6281;49.038;8.372;2022-10-31T05:32:50;10.10;99.90
12434;DHT22;6281;49.038;8.372;2022-10-31T05:35:18;10.20;99.90
12434;DHT22;6281;49.038;8.372;2022-10-31T05:37:45;10.20;99.90
12434;DHT22;6281;49.038;8.372;2022-10-31T05:40:13;10.10;99.90
12434;DHT22;6281;49.038;8.372;2022-10-31T05:42:41;10.10;99.90
12434;DHT22;6281;49.038;8.372;2022-10-31T05:45:10;10.10;99.90
12434;DHT22;6281;49.038;8.372;2022-10-31T05:47:39;10.10;99.90
12434;DHT22;6281;49.038;8.372;2022-10-31T05:50:07;10.10;99.90
12434;DHT22;6281;49.038;8.372;2022-10-31T05:52:35;10.20;99.90
12434;DHT22;6281;49.038;8.372;2022-10-31T05:55:02;10.20;99.90
12434;DHT22;6281;49.038;8.372;2022-10-31T05:57:31;10.10;99.90
12434;DHT22;6281;49.038;8.372;2022-10-31T05:59:58;10.10;99.90
12434;DHT22;6281;49.038;8.372;2022-10-31T06:02:25;10.10;99.90
12434;DHT22;6281;49.038;8.372;2022-10-31T06:04:53;10.20;99.90
12434;DHT22;6281;49.038;8.372;2022-10-31T06:07:20;10.20;99.90
12434;DHT22;6281;49.038;8.372;2022-10-31T06:09:47;10.00;99.90
12434;DHT22;6281;49.038;8.372;2022-10-31T06:12:14;10.00;99.90
12434;DHT22;6281;49.038;8.372;2022-10-31T06:14:41;9.90;99.90
12434;DHT22;6281;49.038;8.372;2022-10-31T06:17:08;10.00;99.90
12434;DHT22;6281;49.038;8.372;2022-10-31T06:19:35;10.00;99.90
12434;DHT22;6281;49.038;8.372;2022-10-31T06:22:03;10.10;99.90
12434;DHT22;6281;49.038;8.372;2022-10-31T06:24:30;10.20;99.90
12434;DHT22;6281;49.038;8.372;2022-10-31T06:26:57;10.40;99.90
12434;DHT22;6281;49.038;8.372;2022-10-31T06:29:23;10.40;99.90
12434;DHT22;6281;49.038;8.372;2022-10-31T06:31:51;10.30;99.90
12434;DHT22;6281;49.038;8.372;2022-10-31T06:34:18;10.30;99.90
12434;DHT22;6281;49.038;8.372;2022-10-31T06:36:46;10.30;99.90
12434;DHT22;6281;49.038;8.372;2022-10-31T06:39:14;10.40;99.90
12434;DHT22;6281;49.038;8.372;2022-10-31T06:41:41;10.40;99.90
12434;DHT22;6281;49.038;8.372;2022-10-31T06:44:08;10.50;99.90
12434;DHT22;6281;49.038;8.372;2022-10-31T06:46:35;10.50;99.90
12434;DHT22;6281;49.038;8.372;2022-10-31T06:49:02;10.70;99.90
12434;DHT22;6281;49.038;8.372;2022-10-31T06:51:29;10.60;99.90
12434;DHT22;6281;49.038;8.372;2022-10-31T06:53:56;10.50;99.90
12434;DHT22;6281;49.038;8.372;2022-10-31T06:56:24;10.50;99.90
12434;DHT22;6281;49.038;8.372;2022-10-31T06:58:51;10.50;99.90
12434;DHT22;6281;49.038;8.372;2022-10-31T07:01:18;10.70;99.90
12434;DHT22;6281;49.038;8.372;2022-10-31T07:03:45;10.80;99.90
12434;DHT22;6281;49.038;8.372;2022-10-31T07:06:12;10.90;99.90
12434;DHT22;6281;49.038;8.372;2022-10-31T07:08:39;10.90;99.90
12434;DHT22;6281;49.038;8.372;2022-10-31T07:11:06;10.90;99.90
12434;DHT22;6281;49.038;8.372;2022-10-31T07:13:34;11.10;99.90
12434;DHT22;6281;49.038;8.372;2022-10-31T07:16:03;11.10;99.90
12434;DHT22;6281;49.038;8.372;2022-10-31T07:18:32;11.20;99.90
12434;DHT22;6281;49.038;8.372;2022-10-31T07:20:59;11.20;99.90
12434;DHT22;6281;49.038;8.372;2022-10-31T07:23:26;11.30;99.90
12434;DHT22;6281;49.038;8.372;2022-10-31T07:25:55;11.30;99.90
12434;DHT22;6281;49.038;8.372;2022-10-31T07:28:22;11.30;99.90
12434;DHT22;6281;49.038;8.372;2022-10-31T07:30:51;11.40;99.90
12434;DHT22;6281;49.038;8.372;2022-10-31T07:33:18;11.50;99.90
12434;DHT22;6281;49.038;8.372;2022-10-31T07:35:45;11.50;99.90
12434;DHT22;6281;49.038;8.372;2022-10-31T07:38:14;11.60;99.90
12434;DHT22;6281;49.038;8.372;2022-10-31T07:40:41;11.60;99.90
12434;DHT22;6281;49.038;8.372;2022-10-31T07:43:09;11.70;99.90
12434;DHT22;6281;49.038;8.372;2022-10-31T07:45:37;11.70;99.90
12434;DHT22;6281;49.038;8.372;2022-10-31T07:48:05;11.80;99.90
12434;DHT22;6281;49.038;8.372;2022-10-31T07:50:33;11.90;99.90
12434;DHT22;6281;49.038;8.372;2022-10-31T07:53:01;11.90;99.90
12434;DHT22;6281;49.038;8.372;2022-10-31T07:55:29;12.00;99.90
12434;DHT22;6281;49.038;8.372;2022-10-31T07:57:58;12.10;99.90
12434;DHT22;6281;49.038;8.372;2022-10-31T08:00:25;12.10;99.90
12434;DHT22;6281;49.038;8.372;2022-10-31T08:02:59;12.20;99.90
12434;DHT22;6281;49.038;8.372;2022-10-31T08:05:28;12.30;99.90
12434;DHT22;6281;49.038;8.372;2022-10-31T08:07:55;12.40;99.90
12434;DHT22;6281;49.038;8.372;2022-10-31T08:10:23;12.40;99.90
12434;DHT22;6281;49.038;8.372;2022-10-31T08:12:56;12.50;99.90
12434;DHT22;6281;49.038;8.372;2022-10-31T08:15:23;12.60;99.90
12434;DHT22;6281;49.038;8.372;2022-10-31T08:17:50;12.70;99.90
12434;DHT22;6281;49.038;8.372;2022-10-31T08:20:17;12.80;99.90
12434;DHT22;6281;49.038;8.372;2022-10-31T08:22:54;12.80;99.90
12434;DHT22;6281;49.038;8.372;2022-10-31T08:25:21;12.70;99.90
12434;DHT22;6281;49.038;8.372;2022-10-31T08:27:51;13.00;99.90
12434;DHT22;6281;49.038;8.372;2022-10-31T08:30:18;13.30;99.90
12434;DHT22;6281;49.038;8.372;2022-10-31T08:32:45;13.50;99.90
12434;DHT22;6281;49.038;8.372;2022-10-31T08:35:11;13.60;99.90
12434;DHT22;6281;49.038;8.372;2022-10-31T08:37:39;13.60;99.90
12434;DHT22;6281;49.038;8.372;2022-10-31T08:40:08;14.30;99.90
12434;DHT22;6281;49.038;8.372;2022-10-31T08:42:36;14.70;99.90
12434;DHT22;6281;49.038;8.372;2022-10-31T08:45:03;15.10;99.90
12434;DHT22;6281;49.038;8.372;2022-10-31T08:47:31;15.80;99.90
12434;DHT22;6281;49.038;8.372;2022-10-31T08:49:57;15.90;99.90
12434;DHT22;6281;49.038;8.372;2022-10-31T08:52:24;16.20;99.90
12434;DHT22;6281;49.038;8.372;2022-10-31T08:54:51;16.10;99.90
12434;DHT22;6281;49.038;8.372;2022-10-31T08:57:20;16.10;99.90
12434;DHT22;6281;49.038;8.372;2022-10-31T08:59:47;14.90;99.90
12434;DHT22;6281;49.038;8.372;2022-10-31T09:02:14;15.20;99.90
12434;DHT22;6281;49.038;8.372;2022-10-31T09:04:41;15.60;99.90
12434;DHT22;6281;49.038;8.372;2022-10-31T09:07:08;16.10;99.90
12434;DHT22;6281;49.038;8.372;2022-10-31T09:09:34;16.00;99.90
12434;DHT22;6281;49.038;8.372;2022-10-31T09:12:01;15.30;99.90
12434;DHT22;6281;49.038;8.372;2022-10-31T09:14:30;15.10;99.90
12434;DHT22;6281;49.038;8.372;2022-10-31T09:16:57;14.70;99.90
12434;DHT22;6281;49.038;8.372;2022-10-31T09:19:23;14.70;99.90
12434;DHT22;6281;49.038;8.372;2022-10-31T09:21:52;14.80;99.90
12434;DHT22;6281;49.038;8.372;2022-10-31T09:24:21;14.90;99.90
12434;DHT22;6281;49.038;8.372;2022-10-31T09:26:48;15.20;99.90
12434;DHT22;6281;49.038;8.372;2022-10-31T09:29:15;15.10;99.90
12434;DHT22;6281;49.038;8.372;2022-10-31T09:31:43;15.20;99.90
12434;DHT22;6281;49.038;8.372;2022-10-31T09:34:10;15.30;99.90
12434;DHT22;6281;49.038;8.372;2022-10-31T09:36:37;15.20;99.90
12434;DHT22;6281;49.038;8.372;2022-10-31T09:39:04;15.30;99.90
12434;DHT22;6281;49.038;8.372;2022-10-31T09:41:50;15.20;99.90
12434;DHT22;6281;49.038;8.372;2022-10-31T09:44:26;15.30;99.90
12434;DHT22;6281;49.038;8.372;2022-10-31T09:47:02;15.50;99.90
12434;DHT22;6281;49.038;8.372;2022-10-31T09:49:40;15.50;99.90
12434;DHT22;6281;49.038;8.372;2022-10-31T09:52:18;15.50;99.90
12434;DHT22;6281;49.038;8.372;2022-10-31T09:54:51;15.60;99.90
12434;DHT22;6281;49.038;8.372;2022-10-31T09:57:24;15.60;99.90
12434;DHT22;6281;49.038;8.372;2022-10-31T09:59:52;15.70;99.90
12434;DHT22;6281;49.038;8.372;2022-10-31T10:02:24;15.80;99.90
12434;DHT22;6281;49.038;8.372;2022-10-31T10:04:56;15.70;99.90
12434;DHT22;6281;49.038;8.372;2022-10-31T10:07:40;16.10;99.90
12434;DHT22;6281;49.038;8.372;2022-10-31T10:10:14;16.10;99.90
12434;DHT22;6281;49.038;8.372;2022-10-31T10:13:00;16.10;99.90
12434;DHT22;6281;49.038;8.372;2022-10-31T10:15:41;16.20;99.90
12434;DHT22;6281;49.038;8.372;2022-10-31T10:18:19;16.40;99.90
12434;DHT22;6281;49.038;8.372;2022-10-31T10:20:59;16.40;99.90
12434;DHT22;6281;49.038;8.372;2022-10-31T10:23:47;16.50;99.90
12434;DHT22;6281;49.038;8.372;2022-10-31T10:26:19;16.20;99.90
12434;DHT22;6281;49.038;8.372;2022-10-31T10:28:48;16.50;99.90
12434;DHT22;6281;49.038;8.372;2022-10-31T10:31:19;16.40;99.90
12434;DHT22;6281;49.038;8.372;2022-10-31T10:33:57;16.40;99.90
12434;DHT22;6281;49.038;8.372;2022-10-31T10:36:29;16.40;99.90
12434;DHT22;6281;49.038;8.372;2022-10-31T10:39:03;16.80;99.90
12434;DHT22;6281;49.038;8.372;2022-10-31T10:41:32;17.10;99.90
12434;DHT22;6281;49.038;8.372;2022-10-31T10:43:59;16.80;99.90
12434;DHT22;6281;49.038;8.372;2022-10-31T10:46:30;16.80;99.90
12434;DHT22;6281;49.038;8.372;2022-10-31T10:49:23;16.70;99.90
12434;DHT22;6281;49.038;8.372;2022-10-31T10:51:56;16.70;99.90
12434;DHT22;6281;49.038;8.372;2022-10-31T10:54:46;16.70;99.90
12434;DHT22;6281;49.038;8.372;2022-10-31T10:57:26;16.80;99.90
12434;DHT22;6281;49.038;8.372;2022-10-31T10:59:54;16.80;99.90
12434;DHT22;6281;49.038;8.372;2022-10-31T11:02:23;16.80;99.90
12434;DHT22;6281;49.038;8.372;2022-10-31T11:04:54;16.80;99.90
12434;DHT22;6281;49.038;8.372;2022-10-31T11:07:21;16.70;99.90
12434;DHT22;6281;49.038;8.372;2022-10-31T11:09:48;16.80;99.90
12434;DHT22;6281;49.038;8.372;2022-10-31T11:12:21;16.80;99.90
12434;DHT22;6281;49.038;8.372;2022-10-31T11:14:52;16.90;99.90
12434;DHT22;6281;49.038;8.372;2022-10-31T11:17:26;17.00;99.90
12434;DHT22;6281;49.038;8.372;2022-10-31T11:20:25;16.70;99.90
12434;DHT22;6281;49.038;8.372;2022-10-31T11:23:03;16.80;99.90
12434;DHT22;6281;49.038;8.372;2022-10-31T11:25:30;16.90;99.90
12434;DHT22;6281;49.038;8.372;2022-10-31T11:28:01;17.10;99.90
12434;DHT22;6281;49.038;8.372;2022-10-31T11:30:29;17.10;99.90
12434;DHT22;6281;49.038;8.372;2022-10-31T11:32:57;17.20;99.90
12434;DHT22;6281;49.038;8.372;2022-10-31T11:35:26;17.20;99.90
12434;DHT22;6281;49.038;8.372;2022-10-31T11:37:56;16.90;99.90
12434;DHT22;6281;49.038;8.372;2022-10-31T11:40:26;16.60;99.90
12434;DHT22;6281;49.038;8.372;2022-10-31T11:42:55;16.90;99.90
12434;DHT22;6281;49.038;8.372;2022-10-31T11:45:33;17.20;99.90
12434;DHT22;6281;49.038;8.372;2022-10-31T11:48:12;17.30;99.90
12434;DHT22;6281;49.038;8.372;2022-10-31T11:50:42;17.30;99.90
12434;DHT22;6281;49.038;8.372;2022-10-31T11:53:16;17.30;99.90
12434;DHT22;6281;49.038;8.372;2022-10-31T11:55:44;17.40;99.90
12434;DHT22;6281;49.038;8.372;2022-10-31T11:58:22;17.50;99.90
12434;DHT22;6281;49.038;8.372;2022-10-31T12:00:51;17.30;99.90
12434;DHT22;6281;49.038;8.372;2022-10-31T12:03:31;17.40;99.90
12434;DHT22;6281;49.038;8.372;2022-10-31T12:06:05;17.40;99.90
12434;DHT22;6281;49.038;8.372;2022-10-31T12:08:34;17.10;99.90
12434;DHT22;6281;49.038;8.372;2022-10-31T12:11:10;17.20;99.90
12434;DHT22;6281;49.038;8.372;2022-10-31T12:13:42;17.20;99.90
12434;DHT22;6281;49.038;8.372;2022-10-31T12:16:20;17.30;99.90
12434;DHT22;6281;49.038;8.372;2022-10-31T12:18:56;17.20;99.90
12434;DHT22;6281;49.038;8.372;2022-10-31T12:21:36;17.30;99.90
12434;DHT22;6281;49.038;8.372;2022-10-31T12:24:15;17.20;99.90
12434;DHT22;6281;49.038;8.372;2022-10-31T12:26:52;17.30;99.90
12434;DHT22;6281;49.038;8.372;2022-10-31T12:29:41;17.30;99.90
12434;DHT22;6281;49.038;8.372;2022-10-31T12:32:24;17.30;99.90
12434;DHT22;6281;49.038;8.372;2022-10-31T12:35:13;17.20;99.90
12434;DHT22;6281;49.038;8.372;2022-10-31T12:37:57;17.00;99.90
12434;DHT22;6281;49.038;8.372;2022-10-31T12:40:41;17.30;99.90
12434;DHT22;6281;49.038;8.372;2022-10-31T12:43:20;17.30;99.90
12434;DHT22;6281;49.038;8.372;2022-10-31T12:45:55;17.10;99.90
12434;DHT22;6281;49.038;8.372;2022-10-31T12:48:48;17.00;99.90
12434;DHT22;6281;49.038;8.372;2022-10-31T12:51:23;17.00;99.90
12434;DHT22;6281;49.038;8.372;2022-10-31T12:54:09;17.10;99.90
12434;DHT22;6281;49.038;8.372;2022-10-31T12:56:46;17.10;99.90
12434;DHT22;6281;49.038;8.372;2022-10-31T12:59:20;17.30;99.90
12434;DHT22;6281;49.038;8.372;2022-10-31T13:01:50;18.30;99.90
12434;DHT22;6281;49.038;8.372;2022-10-31T13:04:24;19.50;99.90
12434;DHT22;6281;49.038;8.372;2022-10-31T13:06:58;20.10;99.90
12434;DHT22;6281;49.038;8.372;2022-10-31T13:09:34;20.70;99.90
12434;DHT22;6281;49.038;8.372;2022-10-31T13:12:07;20.70;99.90
12434;DHT22;6281;49.038;8.372;2022-10-31T13:14:39;21.10;99.90
12434;DHT22;6281;49.038;8.372;2022-10-31T13:17:15;21.10;99.90
12434;DHT22;6281;49.038;8.372;2022-10-31T13:19:45;21.20;99.90
12434;DHT22;6281;49.038;8.372;2022-10-31T13:22:17;21.30;99.90
12434;DHT22;6281;49.038;8.372;2022-10-31T13:24:52;20.30;99.90
12434;DHT22;6281;49.038;8.372;2022-10-31T13:27:24;20.50;99.90
12434;DHT22;6281;49.038;8.372;2022-10-31T13:29:59;20.30;99.90
12434;DHT22;6281;49.038;8.372;2022-10-31T13:32:36;21.40;99.90
12434;DHT22;6281;49.038;8.372;2022-10-31T13:35:07;21.50;99.90
12434;DHT22;6281;49.038;8.372;2022-10-31T13:37:39;21.00;99.90
12434;DHT22;6281;49.038;8.372;2022-10-31T13:40:16;20.50;99.90
12434;DHT22;6281;49.038;8.372;2022-10-31T13:42:54;19.70;99.90
12434;DHT22;6281;49.038;8.372;2022-10-31T13:45:23;19.80;99.90
12434;DHT22;6281;49.038;8.372;2022-10-31T13:47:58;19.50;99.90
12434;DHT22;6281;49.038;8.372;2022-10-31T13:50:27;19.10;99.90
12434;DHT22;6281;49.038;8.372;2022-10-31T13:53:10;19.10;99.90
12434;DHT22;6281;49.038;8.372;2022-10-31T13:55:41;19.50;99.90
12434;DHT22;6281;49.038;8.372;2022-10-31T13:58:32;19.60;99.90
12434;DHT22;6281;49.038;8.372;2022-10-31T14:01:14;19.50;99.90
12434;DHT22;6281;49.038;8.372;2022-10-31T14:03:44;19.40;99.90
12434;DHT22;6281;49.038;8.372;2022-10-31T14:06:12;19.10;99.90
12434;DHT22;6281;49.038;8.372;2022-10-31T14:08:47;19.20;99.90
12434;DHT22;6281;49.038;8.372;2022-10-31T14:11:22;19.00;99.90
12434;DHT22;6281;49.038;8.372;2022-10-31T14:13:50;18.70;99.90
12434;DHT22;6281;49.038;8.372;2022-10-31T14:16:19;18.60;99.90
12434;DHT22;6281;49.038;8.372;2022-10-31T14:18:50;18.70;99.90
12434;DHT22;6281;49.038;8.372;2022-10-31T14:21:27;18.70;99.90
12434;DHT22;6281;49.038;8.372;2022-10-31T14:23:55;18.30;99.90
12434;DHT22;6281;49.038;8.372;2022-10-31T14:26:36;18.30;99.90
12434;DHT22;6281;49.038;8.372;2022-10-31T14:29:21;18.20;99.90
12434;DHT22;6281;49.038;8.372;2022-10-31T14:31:55;18.30;99.90
12434;DHT22;6281;49.038;8.372;2022-10-31T14:34:26;18.50;99.90
12434;DHT22;6281;49.038;8.372;2022-10-31T14:37:15;18.50;99.90
12434;DHT22;6281;49.038;8.372;2022-10-31T14:39:51;18.20;99.90
12434;DHT22;6281;49.038;8.372;2022-10-31T14:42:32;18.20;99.90
12434;DHT22;6281;49.038;8.372;2022-10-31T14:45:14;18.60;99.90
12434;DHT22;6281;49.038;8.372;2022-10-31T14:47:49;18.80;99.90
12434;DHT22;6281;49.038;8.372;2022-10-31T14:50:24;18.90;99.90
12434;DHT22;6281;49.038;8.372;2022-10-31T14:52:57;18.90;99.90
12434;DHT22;6281;49.038;8.372;2022-10-31T14:55:27;18.60;99.90
12434;DHT22;6281;49.038;8.372;2022-10-31T14:57:58;18.60;99.90
12434;DHT22;6281;49.038;8.372;2022-10-31T15:00:28;18.40;99.90
12434;DHT22;6281;49.038;8.372;2022-10-31T15:03:07;18.20;99.90
12434;DHT22;6281;49.038;8.372;2022-10-31T15:05:42;18.10;99.90
12434;DHT22;6281;49.038;8.372;2022-10-31T15:08:14;18.20;99.90
12434;DHT22;6281;49.038;8.372;2022-10-31T15:10:52;18.10;99.90
12434;DHT22;6281;49.038;8.372;2022-10-31T15:13:21;17.90;99.90
12434;DHT22;6281;49.038;8.372;2022-10-31T15:15:49;17.90;99.90
12434;DHT22;6281;49.038;8.372;2022-10-31T15:18:21;17.70;99.90
12434;DHT22;6281;49.038;8.372;2022-10-31T15:20:48;17.30;99.90
12434;DHT22;6281;49.038;8.372;2022-10-31T15:23:20;17.20;99.90
12434;DHT22;6281;49.038;8.372;2022-10-31T15:25:47;17.20;99.90
12434;DHT22;6281;49.038;8.372;2022-10-31T15:28:15;17.30;99.90
12434;DHT22;6281;49.038;8.372;2022-10-31T15:30:52;17.30;99.90
12434;DHT22;6281;49.038;8.372;2022-10-31T15:33:21;17.10;99.90
12434;DHT22;6281;49.038;8.372;2022-10-31T15:35:56;17.00;99.90
12434;DHT22;6281;49.038;8.372;2022-10-31T15:38:24;16.90;99.90
12434;DHT22;6281;49.038;8.372;2022-10-31T15:40:54;16.90;99.90
12434;DHT22;6281;49.038;8.372;2022-10-31T15:43:21;16.80;99.90
12434;DHT22;6281;49.038;8.372;2022-10-31T15:45:50;16.80;99.90
12434;DHT22;6281;49.038;8.372;2022-10-31T15:48:21;16.80;99.90
12434;DHT22;6281;49.038;8.372;2022-10-31T15:50:51;16.60;99.90
12434;DHT22;6281;49.038;8.372;2022-10-31T15:53:22;16.60;99.90
12434;DHT22;6281;49.038;8.372;2022-10-31T15:55:54;16.70;99.90
12434;DHT22;6281;49.038;8.372;2022-10-31T15:58:22;16.30;99.90
12434;DHT22;6281;49.038;8.372;2022-10-31T16:01:02;16.30;99.90
12434;DHT22;6281;49.038;8.372;2022-10-31T16:03:31;16.10;99.90
12434;DHT22;6281;49.038;8.372;2022-10-31T16:06:00;16.10;99.90
12434;DHT22;6281;49.038;8.372;2022-10-31T16:08:34;16.00;99.90
12434;DHT22;6281;49.038;8.372;2022-10-31T16:11:15;16.10;99.90